sensor_id;sensor_type;location;lat;lon;timestamp;P1;durP1;ratioP1;P2;durP2;ratioP2
75437;SDS011;64015;49.392;15.582;2023-02-26T00:00:30;1.67;;;0.77;;
75437;SDS011;64015;49.392;15.582;2023-02-26T00:03:16;5.47;;;1.20;;
75437;SDS011;64015;49.392;15.582;2023-02-26T00:05:41;1.70;;;0.90;;
75437;SDS011;64015;49.392;15.582;2023-02-26T00:08:08;1.90;;;1.02;;
75437;SDS011;64015;49.392;15.582;2023-02-26T00:10:33;3.60;;;1.40;;
75437;SDS011;64015;49.392;15.582;2023-02-26T00:12:59;2.00;;;0.80;;
75437;SDS011;64015;49.392;15.582;2023-02-26T00:15:25;2.33;;;0.93;;
75437;SDS011;64015;49.392;15.582;2023-02-26T00:20:24;3.58;;;1.10;;
75437;SDS011;64015;49.392;15.582;2023-02-26T00:22:51;3.00;;;1.30;;
75437;SDS011;64015;49.392;15.582;2023-02-26T00:25:17;3.60;;;1.20;;
75437;SDS011;64015;49.392;15.582;2023-02-26T00:27:43;2.83;;;0.98;;
75437;SDS011;64015;49.392;15.582;2023-02-26T00:30:09;2.55;;;1.10;;
75437;SDS011;64015;49.392;15.582;2023-02-26T00:32:36;1.58;;;0.60;;
75437;SDS011;64015;49.392;15.582;2023-02-26T00:35:06;1.90;;;0.95;;
75437;SDS011;64015;49.392;15.582;2023-02-26T00:43:09;3.58;;;1.08;;
75437;SDS011;64015;49.392;15.582;2023-02-26T00:45:46;3.58;;;0.85;;
75437;SDS011;64015;49.392;15.582;2023-02-26T00:48:28;1.80;;;0.88;;
75437;SDS011;64015;49.392;15.582;2023-02-26T00:51:20;2.45;;;0.95;;
75437;SDS011;64015;49.392;15.582;2023-02-26T00:56:47;12.15;;;1.17;;
75437;SDS011;64015;49.392;15.582;2023-02-26T00:59:14;2.90;;;0.98;;
75437;SDS011;64015;49.392;15.582;2023-02-26T01:01:41;2.33;;;0.68;;
75437;SDS011;64015;49.392;15.582;2023-02-26T01:04:07;2.03;;;0.88;;
75437;SDS011;64015;49.392;15.582;2023-02-26T01:06:34;2.47;;;1.05;;
75437;SDS011;64015;49.392;15.582;2023-02-26T01:11:33;6.75;;;1.15;;
75437;SDS011;64015;49.392;15.582;2023-02-26T01:14:00;2.00;;;0.88;;
75437;SDS011;64015;49.392;15.582;2023-02-26T01:16:27;1.48;;;0.75;;
75437;SDS011;64015;49.392;15.582;2023-02-26T01:19:02;1.70;;;0.80;;
75437;SDS011;64015;49.392;15.582;2023-02-26T01:22:14;1.60;;;0.77;;
75437;SDS011;64015;49.392;15.582;2023-02-26T01:27:58;1.90;;;0.90;;
75437;SDS011;64015;49.392;15.582;2023-02-26T01:30:24;2.47;;;1.02;;
75437;SDS011;64015;49.392;15.582;2023-02-26T01:36:49;2.08;;;0.95;;
75437;SDS011;64015;49.392;15.582;2023-02-26T01:39:57;3.80;;;1.75;;
75437;SDS011;64015;49.392;15.582;2023-02-26T01:43:26;6.72;;;1.90;;
75437;SDS011;64015;49.392;15.582;2023-02-26T01:49:33;6.45;;;2.42;;
75437;SDS011;64015;49.392;15.582;2023-02-26T01:54:59;8.60;;;2.67;;
75437;SDS011;64015;49.392;15.582;2023-02-26T01:57:25;11.07;;;3.40;;
75437;SDS011;64015;49.392;15.582;2023-02-26T01:59:51;10.00;;;3.25;;
75437;SDS011;64015;49.392;15.582;2023-02-26T02:02:19;9.75;;;2.72;;
75437;SDS011;64015;49.392;15.582;2023-02-26T02:04:47;9.48;;;3.15;;
75437;SDS011;64015;49.392;15.582;2023-02-26T02:07:17;5.47;;;2.38;;
75437;SDS011;64015;49.392;15.582;2023-02-26T02:09:43;12.40;;;3.53;;
75437;SDS011;64015;49.392;15.582;2023-02-26T02:12:12;7.72;;;2.67;;
75437;SDS011;64015;49.392;15.582;2023-02-26T02:23:05;4.93;;;2.60;;
75437;SDS011;64015;49.392;15.582;2023-02-26T02:31:24;5.35;;;1.90;;
75437;SDS011;64015;49.392;15.582;2023-02-26T02:36:42;3.97;;;1.65;;
75437;SDS011;64015;49.392;15.582;2023-02-26T02:41:48;4.18;;;1.42;;
75437;SDS011;64015;49.392;15.582;2023-02-26T02:44:18;3.22;;;1.35;;
75437;SDS011;64015;49.392;15.582;2023-02-26T02:46:50;4.78;;;1.80;;
75437;SDS011;64015;49.392;15.582;2023-02-26T02:49:21;8.13;;;2.53;;
75437;SDS011;64015;49.392;15.582;2023-02-26T02:52:28;7.18;;;2.55;;
75437;SDS011;64015;49.392;15.582;2023-02-26T02:54:53;9.85;;;2.88;;
75437;SDS011;64015;49.392;15.582;2023-02-26T02:57:28;8.95;;;2.67;;
75437;SDS011;64015;49.392;15.582;2023-02-26T03:00:00;7.30;;;2.42;;
75437;SDS011;64015;49.392;15.582;2023-02-26T03:02:42;4.43;;;2.00;;
75437;SDS011;64015;49.392;15.582;2023-02-26T03:05:11;3.72;;;1.50;;
75437;SDS011;64015;49.392;15.582;2023-02-26T03:07:40;3.67;;;1.27;;
75437;SDS011;64015;49.392;15.582;2023-02-26T03:10:11;2.95;;;1.20;;
75437;SDS011;64015;49.392;15.582;2023-02-26T03:12:37;2.97;;;1.30;;
75437;SDS011;64015;49.392;15.582;2023-02-26T03:15:03;4.30;;;1.77;;
75437;SDS011;64015;49.392;15.582;2023-02-26T03:17:41;3.45;;;1.65;;
75437;SDS011;64015;49.392;15.582;2023-02-26T03:20:25;3.33;;;1.40;;
75437;SDS011;64015;49.392;15.582;2023-02-26T03:25:50;3.20;;;1.48;;
75437;SDS011;64015;49.392;15.582;2023-02-26T03:31:04;2.92;;;1.52;;
75437;SDS011;64015;49.392;15.582;2023-02-26T03:36:17;4.13;;;1.50;;
75437;SDS011;64015;49.392;15.582;2023-02-26T03:42:07;3.75;;;1.67;;
75437;SDS011;64015;49.392;15.582;2023-02-26T03:47:34;3.97;;;1.38;;
75437;SDS011;64015;49.392;15.582;2023-02-26T03:52:26;3.65;;;1.70;;
75437;SDS011;64015;49.392;15.582;2023-02-26T03:57:34;4.13;;;1.73;;
75437;SDS011;64015;49.392;15.582;2023-02-26T04:00:00;3.38;;;1.60;;
75437;SDS011;64015;49.392;15.582;2023-02-26T04:02:28;2.95;;;1.27;;
75437;SDS011;64015;49.392;15.582;2023-02-26T04:05:07;2.65;;;1.23;;
75437;SDS011;64015;49.392;15.582;2023-02-26T04:07:46;4.05;;;2.28;;
75437;SDS011;64015;49.392;15.582;2023-02-26T04:10:17;4.70;;;2.03;;
75437;SDS011;64015;49.392;15.582;2023-02-26T04:12:45;5.15;;;2.50;;
75437;SDS011;64015;49.392;15.582;2023-02-26T04:15:12;6.60;;;2.25;;
75437;SDS011;64015;49.392;15.582;2023-02-26T04:17:39;4.70;;;2.25;;
75437;SDS011;64015;49.392;15.582;2023-02-26T04:20:05;6.53;;;2.95;;
75437;SDS011;64015;49.392;15.582;2023-02-26T04:22:35;5.70;;;2.45;;
75437;SDS011;64015;49.392;15.582;2023-02-26T04:25:01;6.68;;;2.92;;
75437;SDS011;64015;49.392;15.582;2023-02-26T04:27:27;6.50;;;2.72;;
75437;SDS011;64015;49.392;15.582;2023-02-26T04:29:53;7.93;;;3.50;;
75437;SDS011;64015;49.392;15.582;2023-02-26T04:32:18;6.05;;;3.08;;
75437;SDS011;64015;49.392;15.582;2023-02-26T04:34:44;5.53;;;2.58;;
75437;SDS011;64015;49.392;15.582;2023-02-26T04:37:10;7.78;;;3.17;;
75437;SDS011;64015;49.392;15.582;2023-02-26T04:39:36;7.65;;;3.15;;
75437;SDS011;64015;49.392;15.582;2023-02-26T04:42:01;8.05;;;3.15;;
75437;SDS011;64015;49.392;15.582;2023-02-26T04:44:29;6.03;;;3.28;;
75437;SDS011;64015;49.392;15.582;2023-02-26T04:46:55;8.25;;;3.13;;
75437;SDS011;64015;49.392;15.582;2023-02-26T04:49:21;7.72;;;3.38;;
75437;SDS011;64015;49.392;15.582;2023-02-26T04:51:47;7.70;;;3.25;;
75437;SDS011;64015;49.392;15.582;2023-02-26T04:54:13;6.47;;;3.05;;
75437;SDS011;64015;49.392;15.582;2023-02-26T04:56:39;6.88;;;3.00;;
75437;SDS011;64015;49.392;15.582;2023-02-26T04:59:05;7.35;;;3.53;;
75437;SDS011;64015;49.392;15.582;2023-02-26T05:01:31;6.53;;;2.53;;
75437;SDS011;64015;49.392;15.582;2023-02-26T05:03:56;5.47;;;2.63;;
75437;SDS011;64015;49.392;15.582;2023-02-26T05:06:22;8.38;;;2.95;;
75437;SDS011;64015;49.392;15.582;2023-02-26T05:08:48;6.00;;;2.40;;
75437;SDS011;64015;49.392;15.582;2023-02-26T05:11:13;6.13;;;2.42;;
75437;SDS011;64015;49.392;15.582;2023-02-26T05:13:39;6.50;;;2.70;;
75437;SDS011;64015;49.392;15.582;2023-02-26T05:16:05;6.65;;;2.90;;
75437;SDS011;64015;49.392;15.582;2023-02-26T05:18:32;6.38;;;2.72;;
75437;SDS011;64015;49.392;15.582;2023-02-26T05:20:58;6.00;;;2.50;;
75437;SDS011;64015;49.392;15.582;2023-02-26T05:23:24;6.63;;;3.00;;
75437;SDS011;64015;49.392;15.582;2023-02-26T05:25:49;6.70;;;2.78;;
75437;SDS011;64015;49.392;15.582;2023-02-26T05:28:15;5.30;;;2.55;;
75437;SDS011;64015;49.392;15.582;2023-02-26T05:30:41;5.60;;;2.70;;
75437;SDS011;64015;49.392;15.582;2023-02-26T05:33:07;8.98;;;3.13;;
75437;SDS011;64015;49.392;15.582;2023-02-26T05:35:33;5.18;;;2.28;;
75437;SDS011;64015;49.392;15.582;2023-02-26T05:37:59;5.32;;;2.35;;
75437;SDS011;64015;49.392;15.582;2023-02-26T05:40:24;5.32;;;2.08;;
75437;SDS011;64015;49.392;15.582;2023-02-26T05:42:53;7.80;;;2.40;;
75437;SDS011;64015;49.392;15.582;2023-02-26T05:45:18;8.63;;;2.65;;
75437;SDS011;64015;49.392;15.582;2023-02-26T05:47:44;4.28;;;1.83;;
75437;SDS011;64015;49.392;15.582;2023-02-26T05:50:10;6.63;;;2.70;;
75437;SDS011;64015;49.392;15.582;2023-02-26T05:52:36;5.68;;;2.20;;
75437;SDS011;64015;49.392;15.582;2023-02-26T05:55:02;8.07;;;2.45;;
75437;SDS011;64015;49.392;15.582;2023-02-26T05:57:28;5.88;;;2.55;;
75437;SDS011;64015;49.392;15.582;2023-02-26T05:59:54;5.93;;;2.75;;
75437;SDS011;64015;49.392;15.582;2023-02-26T06:02:19;6.03;;;2.08;;
75437;SDS011;64015;49.392;15.582;2023-02-26T06:04:45;5.10;;;1.90;;
75437;SDS011;64015;49.392;15.582;2023-02-26T06:07:11;6.28;;;2.40;;
75437;SDS011;64015;49.392;15.582;2023-02-26T06:09:37;6.50;;;2.67;;
75437;SDS011;64015;49.392;15.582;2023-02-26T06:12:03;7.20;;;2.97;;
75437;SDS011;64015;49.392;15.582;2023-02-26T06:14:29;6.03;;;2.47;;
75437;SDS011;64015;49.392;15.582;2023-02-26T06:16:55;5.25;;;2.33;;
75437;SDS011;64015;49.392;15.582;2023-02-26T06:19:20;5.80;;;2.70;;
75437;SDS011;64015;49.392;15.582;2023-02-26T06:21:46;6.57;;;2.90;;
75437;SDS011;64015;49.392;15.582;2023-02-26T06:24:12;5.97;;;3.10;;
75437;SDS011;64015;49.392;15.582;2023-02-26T06:26:38;5.22;;;2.33;;
75437;SDS011;64015;49.392;15.582;2023-02-26T06:29:03;5.32;;;2.78;;
75437;SDS011;64015;49.392;15.582;2023-02-26T06:31:29;7.03;;;2.50;;
75437;SDS011;64015;49.392;15.582;2023-02-26T06:33:55;7.97;;;2.70;;
75437;SDS011;64015;49.392;15.582;2023-02-26T06:36:21;6.60;;;3.03;;
75437;SDS011;64015;49.392;15.582;2023-02-26T06:38:46;7.50;;;2.78;;
75437;SDS011;64015;49.392;15.582;2023-02-26T06:41:12;5.05;;;2.47;;
75437;SDS011;64015;49.392;15.582;2023-02-26T06:43:38;8.25;;;3.03;;
75437;SDS011;64015;49.392;15.582;2023-02-26T06:46:06;6.32;;;2.85;;
75437;SDS011;64015;49.392;15.582;2023-02-26T06:48:31;8.10;;;2.72;;
75437;SDS011;64015;49.392;15.582;2023-02-26T06:50:57;5.97;;;2.70;;
75437;SDS011;64015;49.392;15.582;2023-02-26T06:53:23;5.38;;;2.45;;
75437;SDS011;64015;49.392;15.582;2023-02-26T06:55:49;6.30;;;3.08;;
75437;SDS011;64015;49.392;15.582;2023-02-26T06:58:17;6.20;;;2.70;;
75437;SDS011;64015;49.392;15.582;2023-02-26T07:00:46;6.38;;;2.80;;
75437;SDS011;64015;49.392;15.582;2023-02-26T07:03:13;6.97;;;2.70;;
75437;SDS011;64015;49.392;15.582;2023-02-26T07:05:40;6.93;;;2.80;;
75437;SDS011;64015;49.392;15.582;2023-02-26T07:08:06;4.97;;;2.42;;
75437;SDS011;64015;49.392;15.582;2023-02-26T07:10:33;5.93;;;2.45;;
75437;SDS011;64015;49.392;15.582;2023-02-26T07:13:00;4.30;;;2.40;;
75437;SDS011;64015;49.392;15.582;2023-02-26T07:15:27;4.30;;;2.10;;
75437;SDS011;64015;49.392;15.582;2023-02-26T07:17:53;6.13;;;2.38;;
75437;SDS011;64015;49.392;15.582;2023-02-26T07:20:19;6.05;;;2.58;;
75437;SDS011;64015;49.392;15.582;2023-02-26T07:22:45;5.00;;;2.75;;
75437;SDS011;64015;49.392;15.582;2023-02-26T07:25:13;4.22;;;2.33;;
75437;SDS011;64015;49.392;15.582;2023-02-26T07:27:39;4.95;;;2.38;;
75437;SDS011;64015;49.392;15.582;2023-02-26T07:30:05;5.03;;;2.28;;
75437;SDS011;64015;49.392;15.582;2023-02-26T07:32:31;7.60;;;3.28;;
75437;SDS011;64015;49.392;15.582;2023-02-26T07:34:58;12.55;;;5.00;;
75437;SDS011;64015;49.392;15.582;2023-02-26T07:37:26;6.47;;;2.67;;
75437;SDS011;64015;49.392;15.582;2023-02-26T07:39:56;6.93;;;3.15;;
75437;SDS011;64015;49.392;15.582;2023-02-26T07:42:22;10.52;;;4.40;;
75437;SDS011;64015;49.392;15.582;2023-02-26T07:44:48;6.38;;;3.58;;
75437;SDS011;64015;49.392;15.582;2023-02-26T07:47:16;8.10;;;3.95;;
75437;SDS011;64015;49.392;15.582;2023-02-26T07:49:42;7.75;;;3.58;;
75437;SDS011;64015;49.392;15.582;2023-02-26T07:52:07;4.95;;;3.03;;
75437;SDS011;64015;49.392;15.582;2023-02-26T07:54:34;4.68;;;2.20;;
75437;SDS011;64015;49.392;15.582;2023-02-26T07:57:00;5.75;;;2.50;;
75437;SDS011;64015;49.392;15.582;2023-02-26T07:59:27;4.57;;;2.13;;
75437;SDS011;64015;49.392;15.582;2023-02-26T08:01:53;4.13;;;2.10;;
75437;SDS011;64015;49.392;15.582;2023-02-26T08:04:19;6.35;;;2.60;;
75437;SDS011;64015;49.392;15.582;2023-02-26T08:06:44;5.95;;;2.13;;
75437;SDS011;64015;49.392;15.582;2023-02-26T08:09:12;7.68;;;2.60;;
75437;SDS011;64015;49.392;15.582;2023-02-26T08:11:38;6.13;;;2.88;;
75437;SDS011;64015;49.392;15.582;2023-02-26T08:14:07;4.60;;;2.28;;
75437;SDS011;64015;49.392;15.582;2023-02-26T08:16:33;5.20;;;2.63;;
75437;SDS011;64015;49.392;15.582;2023-02-26T08:18:59;4.38;;;1.90;;
75437;SDS011;64015;49.392;15.582;2023-02-26T08:21:25;5.75;;;2.33;;
75437;SDS011;64015;49.392;15.582;2023-02-26T08:23:51;3.53;;;1.77;;
75437;SDS011;64015;49.392;15.582;2023-02-26T08:26:17;4.28;;;1.75;;
75437;SDS011;64015;49.392;15.582;2023-02-26T08:28:43;3.78;;;1.48;;
75437;SDS011;64015;49.392;15.582;2023-02-26T08:31:10;3.08;;;1.38;;
75437;SDS011;64015;49.392;15.582;2023-02-26T08:33:37;4.25;;;1.25;;
75437;SDS011;64015;49.392;15.582;2023-02-26T08:36:03;4.03;;;2.10;;
75437;SDS011;64015;49.392;15.582;2023-02-26T08:38:29;4.07;;;2.10;;
75437;SDS011;64015;49.392;15.582;2023-02-26T08:40:56;3.40;;;1.70;;
75437;SDS011;64015;49.392;15.582;2023-02-26T08:43:22;3.75;;;2.10;;
75437;SDS011;64015;49.392;15.582;2023-02-26T08:45:50;4.07;;;2.08;;
75437;SDS011;64015;49.392;15.582;2023-02-26T08:48:18;3.72;;;1.80;;
75437;SDS011;64015;49.392;15.582;2023-02-26T08:50:43;3.97;;;1.95;;
75437;SDS011;64015;49.392;15.582;2023-02-26T08:53:09;3.55;;;1.67;;
75437;SDS011;64015;49.392;15.582;2023-02-26T08:55:35;4.30;;;1.60;;
75437;SDS011;64015;49.392;15.582;2023-02-26T08:58:01;4.03;;;1.85;;
75437;SDS011;64015;49.392;15.582;2023-02-26T09:00:30;3.53;;;2.10;;
75437;SDS011;64015;49.392;15.582;2023-02-26T09:02:56;6.32;;;3.25;;
75437;SDS011;64015;49.392;15.582;2023-02-26T09:05:22;4.85;;;2.35;;
75437;SDS011;64015;49.392;15.582;2023-02-26T09:07:48;3.80;;;1.80;;
75437;SDS011;64015;49.392;15.582;2023-02-26T09:10:13;5.25;;;1.80;;
75437;SDS011;64015;49.392;15.582;2023-02-26T09:12:43;5.47;;;2.10;;
75437;SDS011;64015;49.392;15.582;2023-02-26T09:15:11;2.95;;;1.50;;
75437;SDS011;64015;49.392;15.582;2023-02-26T09:17:39;3.10;;;1.23;;
75437;SDS011;64015;49.392;15.582;2023-02-26T09:20:05;6.03;;;1.50;;
75437;SDS011;64015;49.392;15.582;2023-02-26T09:22:31;4.00;;;2.00;;
75437;SDS011;64015;49.392;15.582;2023-02-26T09:24:57;4.82;;;1.90;;
75437;SDS011;64015;49.392;15.582;2023-02-26T09:27:23;4.95;;;2.53;;
75437;SDS011;64015;49.392;15.582;2023-02-26T09:29:49;5.88;;;2.20;;
75437;SDS011;64015;49.392;15.582;2023-02-26T09:32:15;5.40;;;1.75;;
75437;SDS011;64015;49.392;15.582;2023-02-26T09:34:40;4.28;;;1.90;;
75437;SDS011;64015;49.392;15.582;2023-02-26T09:37:07;3.13;;;2.13;;
75437;SDS011;64015;49.392;15.582;2023-02-26T09:45:02;6.78;;;2.72;;
75437;SDS011;64015;49.392;15.582;2023-02-26T09:47:35;4.43;;;2.35;;
75437;SDS011;64015;49.392;15.582;2023-02-26T09:57:53;3.20;;;1.55;;
75437;SDS011;64015;49.392;15.582;2023-02-26T10:00:24;2.60;;;1.20;;
75437;SDS011;64015;49.392;15.582;2023-02-26T10:05:30;2.88;;;1.40;;
75437;SDS011;64015;49.392;15.582;2023-02-26T10:10:50;6.40;;;2.97;;
75437;SDS011;64015;49.392;15.582;2023-02-26T10:13:46;4.35;;;1.75;;
75437;SDS011;64015;49.392;15.582;2023-02-26T10:16:21;3.58;;;1.35;;
75437;SDS011;64015;49.392;15.582;2023-02-26T10:18:56;3.88;;;1.73;;
75437;SDS011;64015;49.392;15.582;2023-02-26T10:21:49;3.70;;;1.83;;
75437;SDS011;64015;49.392;15.582;2023-02-26T10:26:54;3.05;;;1.50;;
75437;SDS011;64015;49.392;15.582;2023-02-26T10:29:45;3.22;;;1.38;;
75437;SDS011;64015;49.392;15.582;2023-02-26T10:32:25;3.22;;;1.63;;
75437;SDS011;64015;49.392;15.582;2023-02-26T10:34:59;3.92;;;2.10;;
75437;SDS011;64015;49.392;15.582;2023-02-26T10:40:35;3.75;;;1.65;;
75437;SDS011;64015;49.392;15.582;2023-02-26T10:43:55;2.83;;;1.45;;
75437;SDS011;64015;49.392;15.582;2023-02-26T10:52:15;2.92;;;1.00;;
75437;SDS011;64015;49.392;15.582;2023-02-26T10:57:23;2.60;;;1.30;;
75437;SDS011;64015;49.392;15.582;2023-02-26T10:59:53;2.65;;;1.10;;
75437;SDS011;64015;49.392;15.582;2023-02-26T11:02:33;1.90;;;1.00;;
75437;SDS011;64015;49.392;15.582;2023-02-26T11:05:29;2.90;;;1.40;;
75437;SDS011;64015;49.392;15.582;2023-02-26T11:08:09;3.17;;;1.00;;
75437;SDS011;64015;49.392;15.582;2023-02-26T11:10:41;3.10;;;1.17;;
75437;SDS011;64015;49.392;15.582;2023-02-26T11:13:15;3.70;;;1.40;;
75437;SDS011;64015;49.392;15.582;2023-02-26T11:15:41;3.05;;;1.45;;
75437;SDS011;64015;49.392;15.582;2023-02-26T11:18:15;3.20;;;1.70;;
75437;SDS011;64015;49.392;15.582;2023-02-26T11:20:45;5.32;;;2.30;;
75437;SDS011;64015;49.392;15.582;2023-02-26T11:23:20;3.33;;;1.50;;
75437;SDS011;64015;49.392;15.582;2023-02-26T11:26:02;3.00;;;1.48;;
75437;SDS011;64015;49.392;15.582;2023-02-26T11:28:37;12.32;;;4.85;;
75437;SDS011;64015;49.392;15.582;2023-02-26T11:31:09;7.72;;;3.05;;
75437;SDS011;64015;49.392;15.582;2023-02-26T11:33:43;3.85;;;2.58;;
75437;SDS011;64015;49.392;15.582;2023-02-26T11:36:16;4.10;;;2.20;;
75437;SDS011;64015;49.392;15.582;2023-02-26T11:38:55;2.80;;;1.50;;
75437;SDS011;64015;49.392;15.582;2023-02-26T11:41:23;4.80;;;2.30;;
75437;SDS011;64015;49.392;15.582;2023-02-26T11:46:52;3.35;;;1.73;;
75437;SDS011;64015;49.392;15.582;2023-02-26T11:49:21;3.28;;;1.80;;
75437;SDS011;64015;49.392;15.582;2023-02-26T11:52:02;8.88;;;3.55;;
75437;SDS011;64015;49.392;15.582;2023-02-26T11:54:33;5.63;;;2.33;;
75437;SDS011;64015;49.392;15.582;2023-02-26T11:57:02;4.70;;;2.13;;
75437;SDS011;64015;49.392;15.582;2023-02-26T11:59:31;8.23;;;3.60;;
75437;SDS011;64015;49.392;15.582;2023-02-26T12:02:00;13.95;;;6.07;;
75437;SDS011;64015;49.392;15.582;2023-02-26T12:04:34;5.05;;;2.70;;
75437;SDS011;64015;49.392;15.582;2023-02-26T12:06:59;3.38;;;1.55;;
75437;SDS011;64015;49.392;15.582;2023-02-26T12:09:25;4.63;;;1.50;;
75437;SDS011;64015;49.392;15.582;2023-02-26T12:14:59;3.50;;;1.23;;
75437;SDS011;64015;49.392;15.582;2023-02-26T12:20:23;3.92;;;1.75;;
75437;SDS011;64015;49.392;15.582;2023-02-26T12:26:27;4.68;;;1.65;;
75437;SDS011;64015;49.392;15.582;2023-02-26T12:31:45;3.15;;;1.50;;
75437;SDS011;64015;49.392;15.582;2023-02-26T12:37:20;3.22;;;1.05;;
75437;SDS011;64015;49.392;15.582;2023-02-26T13:03:08;3.30;;;1.25;;
75437;SDS011;64015;49.392;15.582;2023-02-26T13:06:01;2.45;;;1.17;;
75437;SDS011;64015;49.392;15.582;2023-02-26T13:08:31;3.95;;;1.38;;
75437;SDS011;64015;49.392;15.582;2023-02-26T13:16:29;2.53;;;1.13;;
75437;SDS011;64015;49.392;15.582;2023-02-26T13:22:05;2.78;;;1.17;;
75437;SDS011;64015;49.392;15.582;2023-02-26T13:24:45;4.03;;;1.48;;
75437;SDS011;64015;49.392;15.582;2023-02-26T13:27:16;2.92;;;1.40;;
75437;SDS011;64015;49.392;15.582;2023-02-26T13:29:50;3.97;;;1.40;;
75437;SDS011;64015;49.392;15.582;2023-02-26T13:32:24;4.55;;;1.98;;
75437;SDS011;64015;49.392;15.582;2023-02-26T13:34:56;3.05;;;1.45;;
75437;SDS011;64015;49.392;15.582;2023-02-26T13:37:26;3.30;;;1.48;;
75437;SDS011;64015;49.392;15.582;2023-02-26T13:48:31;2.97;;;1.38;;
75437;SDS011;64015;49.392;15.582;2023-02-26T13:51:24;2.78;;;1.38;;
75437;SDS011;64015;49.392;15.582;2023-02-26T13:53:53;2.15;;;1.00;;
75437;SDS011;64015;49.392;15.582;2023-02-26T13:56:21;2.45;;;1.15;;
75437;SDS011;64015;49.392;15.582;2023-02-26T14:06:48;4.03;;;1.83;;
75437;SDS011;64015;49.392;15.582;2023-02-26T14:12:00;3.38;;;1.60;;
75437;SDS011;64015;49.392;15.582;2023-02-26T14:14:41;2.53;;;0.85;;
75437;SDS011;64015;49.392;15.582;2023-02-26T14:19:41;3.40;;;1.27;;
75437;SDS011;64015;49.392;15.582;2023-02-26T14:36:55;3.00;;;1.83;;
75437;SDS011;64015;49.392;15.582;2023-02-26T14:39:21;3.58;;;2.40;;
75437;SDS011;64015;49.392;15.582;2023-02-26T14:42:11;6.13;;;2.58;;
75437;SDS011;64015;49.392;15.582;2023-02-26T14:44:45;3.85;;;1.92;;
75437;SDS011;64015;49.392;15.582;2023-02-26T14:47:14;3.45;;;1.73;;
75437;SDS011;64015;49.392;15.582;2023-02-26T14:49:44;5.10;;;2.20;;
75437;SDS011;64015;49.392;15.582;2023-02-26T15:00:46;4.63;;;2.28;;
75437;SDS011;64015;49.392;15.582;2023-02-26T15:06:01;4.15;;;1.83;;
75437;SDS011;64015;49.392;15.582;2023-02-26T15:14:08;6.38;;;3.40;;
75437;SDS011;64015;49.392;15.582;2023-02-26T15:19:53;4.97;;;2.10;;
75437;SDS011;64015;49.392;15.582;2023-02-26T15:25:14;4.05;;;1.70;;
75437;SDS011;64015;49.392;15.582;2023-02-26T15:27:48;3.42;;;1.98;;
75437;SDS011;64015;49.392;15.582;2023-02-26T15:30:14;4.13;;;1.75;;
75437;SDS011;64015;49.392;15.582;2023-02-26T15:32:41;4.40;;;2.13;;
75437;SDS011;64015;49.392;15.582;2023-02-26T15:35:13;5.15;;;2.33;;
75437;SDS011;64015;49.392;15.582;2023-02-26T15:37:46;4.35;;;2.15;;
75437;SDS011;64015;49.392;15.582;2023-02-26T15:40:17;5.45;;;3.00;;
75437;SDS011;64015;49.392;15.582;2023-02-26T15:42:44;5.72;;;3.22;;
75437;SDS011;64015;49.392;15.582;2023-02-26T15:45:26;6.40;;;3.80;;
75437;SDS011;64015;49.392;15.582;2023-02-26T15:47:59;6.28;;;3.97;;
75437;SDS011;64015;49.392;15.582;2023-02-26T15:50:52;5.80;;;3.47;;
75437;SDS011;64015;49.392;15.582;2023-02-26T15:53:31;5.78;;;2.67;;
75437;SDS011;64015;49.392;15.582;2023-02-26T15:56:31;6.55;;;2.70;;
75437;SDS011;64015;49.392;15.582;2023-02-26T15:58:58;7.30;;;2.78;;
75437;SDS011;64015;49.392;15.582;2023-02-26T16:01:28;5.78;;;2.85;;
75437;SDS011;64015;49.392;15.582;2023-02-26T16:04:03;9.07;;;3.20;;
75437;SDS011;64015;49.392;15.582;2023-02-26T16:06:33;10.45;;;3.95;;
75437;SDS011;64015;49.392;15.582;2023-02-26T16:09:01;8.15;;;4.35;;
75437;SDS011;64015;49.392;15.582;2023-02-26T16:11:34;10.98;;;5.43;;
75437;SDS011;64015;49.392;15.582;2023-02-26T16:14:03;9.75;;;4.93;;
75437;SDS011;64015;49.392;15.582;2023-02-26T16:16:35;17.70;;;5.65;;
75437;SDS011;64015;49.392;15.582;2023-02-26T16:19:15;12.82;;;5.32;;
75437;SDS011;64015;49.392;15.582;2023-02-26T16:21:45;10.50;;;3.80;;
75437;SDS011;64015;49.392;15.582;2023-02-26T16:24:17;8.90;;;4.00;;
75437;SDS011;64015;49.392;15.582;2023-02-26T16:26:54;7.45;;;4.25;;
75437;SDS011;64015;49.392;15.582;2023-02-26T16:29:27;8.27;;;3.90;;
75437;SDS011;64015;49.392;15.582;2023-02-26T16:31:57;6.57;;;3.72;;
75437;SDS011;64015;49.392;15.582;2023-02-26T16:34:42;7.15;;;3.70;;
75437;SDS011;64015;49.392;15.582;2023-02-26T16:48:14;8.45;;;3.28;;
75437;SDS011;64015;49.392;15.582;2023-02-26T16:50:48;5.03;;;2.95;;
75437;SDS011;64015;49.392;15.582;2023-02-26T16:53:31;6.57;;;2.90;;
75437;SDS011;64015;49.392;15.582;2023-02-26T16:56:00;11.95;;;5.43;;
75437;SDS011;64015;49.392;15.582;2023-02-26T16:58:28;6.93;;;3.80;;
75437;SDS011;64015;49.392;15.582;2023-02-26T17:01:05;15.25;;;5.75;;
75437;SDS011;64015;49.392;15.582;2023-02-26T17:03:33;9.75;;;3.83;;
75437;SDS011;64015;49.392;15.582;2023-02-26T17:08:41;3.72;;;2.30;;
75437;SDS011;64015;49.392;15.582;2023-02-26T17:11:08;6.53;;;3.10;;
75437;SDS011;64015;49.392;15.582;2023-02-26T17:16:49;8.43;;;2.55;;
75437;SDS011;64015;49.392;15.582;2023-02-26T17:19:16;6.82;;;2.60;;
75437;SDS011;64015;49.392;15.582;2023-02-26T17:21:47;5.57;;;2.15;;
75437;SDS011;64015;49.392;15.582;2023-02-26T17:24:15;8.60;;;2.95;;
75437;SDS011;64015;49.392;15.582;2023-02-26T17:26:47;4.85;;;3.05;;
75437;SDS011;64015;49.392;15.582;2023-02-26T17:29:18;5.82;;;2.92;;
75437;SDS011;64015;49.392;15.582;2023-02-26T17:31:48;5.68;;;2.90;;
75437;SDS011;64015;49.392;15.582;2023-02-26T17:34:14;4.85;;;2.42;;
75437;SDS011;64015;49.392;15.582;2023-02-26T17:36:42;4.88;;;2.22;;
75437;SDS011;64015;49.392;15.582;2023-02-26T17:39:09;4.75;;;2.30;;
75437;SDS011;64015;49.392;15.582;2023-02-26T17:41:37;4.55;;;1.80;;
75437;SDS011;64015;49.392;15.582;2023-02-26T17:44:06;5.00;;;2.30;;
75437;SDS011;64015;49.392;15.582;2023-02-26T17:46:33;3.70;;;2.08;;
75437;SDS011;64015;49.392;15.582;2023-02-26T17:48:59;5.07;;;2.22;;
75437;SDS011;64015;49.392;15.582;2023-02-26T17:51:25;4.05;;;2.10;;
75437;SDS011;64015;49.392;15.582;2023-02-26T17:53:51;3.72;;;2.13;;
75437;SDS011;64015;49.392;15.582;2023-02-26T17:56:23;4.57;;;1.80;;
75437;SDS011;64015;49.392;15.582;2023-02-26T17:58:50;3.42;;;1.92;;
75437;SDS011;64015;49.392;15.582;2023-02-26T18:01:17;5.28;;;2.13;;
75437;SDS011;64015;49.392;15.582;2023-02-26T18:03:43;4.78;;;2.08;;
75437;SDS011;64015;49.392;15.582;2023-02-26T18:06:12;4.22;;;2.25;;
75437;SDS011;64015;49.392;15.582;2023-02-26T18:08:44;5.60;;;2.05;;
75437;SDS011;64015;49.392;15.582;2023-02-26T18:11:11;5.40;;;1.95;;
75437;SDS011;64015;49.392;15.582;2023-02-26T18:13:42;5.25;;;1.88;;
75437;SDS011;64015;49.392;15.582;2023-02-26T18:16:13;5.80;;;2.80;;
75437;SDS011;64015;49.392;15.582;2023-02-26T18:18:42;5.45;;;2.35;;
75437;SDS011;64015;49.392;15.582;2023-02-26T18:21:09;5.72;;;2.28;;
75437;SDS011;64015;49.392;15.582;2023-02-26T18:23:35;4.43;;;1.88;;
75437;SDS011;64015;49.392;15.582;2023-02-26T18:26:04;5.30;;;2.03;;
75437;SDS011;64015;49.392;15.582;2023-02-26T18:28:30;6.13;;;2.40;;
75437;SDS011;64015;49.392;15.582;2023-02-26T18:30:56;6.15;;;2.80;;
75437;SDS011;64015;49.392;15.582;2023-02-26T18:33:23;4.88;;;2.38;;
75437;SDS011;64015;49.392;15.582;2023-02-26T18:35:50;5.28;;;2.33;;